createdAt,value
2023-02-06T00:01:29.796Z,97.20
2023-02-06T00:03:57.945Z,104.40
2023-02-06T00:06:27.544Z,99.47
2023-02-06T00:08:55.649Z,102.47
2023-02-06T00:11:24.413Z,101.23
2023-02-06T00:13:52.589Z,103.00
2023-02-06T00:16:23.016Z,114.43
2023-02-06T00:18:51.837Z,102.30
2023-02-06T00:21:21.956Z,108.40
2023-02-06T00:23:52.512Z,96.10
2023-02-06T00:26:21.150Z,101.73
2023-02-06T00:28:50.205Z,108.40
2023-02-06T00:31:18.575Z,111.17
2023-02-06T00:33:47.427Z,87.83
2023-02-06T00:36:15.890Z,100.93
2023-02-06T00:38:44.023Z,102.47
2023-02-06T00:41:13.625Z,101.60
2023-02-06T00:43:43.439Z,105.60
2023-02-06T00:46:12.305Z,105.30
2023-02-06T00:48:40.485Z,109.73
2023-02-06T00:51:08.746Z,103.23
2023-02-06T00:53:36.869Z,100.40
2023-02-06T00:56:05.205Z,109.33
2023-02-06T00:58:34.734Z,109.73
2023-02-06T01:01:02.949Z,102.00
2023-02-06T01:03:31.092Z,97.20
2023-02-06T01:05:59.200Z,105.43
2023-02-06T01:08:27.418Z,107.77
2023-02-06T01:10:55.534Z,101.20
2023-02-06T01:13:23.679Z,98.87
2023-02-06T01:15:53.252Z,102.97
2023-02-06T01:18:21.380Z,100.37
2023-02-06T01:20:49.461Z,111.53
2023-02-06T01:23:17.601Z,104.97
2023-02-06T01:25:45.752Z,103.70
2023-02-06T01:28:13.901Z,101.70
2023-02-06T01:30:42.075Z,98.60
2023-02-06T01:33:11.612Z,117.20
2023-02-06T01:35:39.740Z,93.30
2023-02-06T01:38:07.853Z,97.07
2023-02-06T01:40:36.026Z,104.13
2023-02-06T01:43:04.151Z,95.10
2023-02-06T01:45:43.954Z,88.03
2023-02-06T01:48:18.526Z,101.43
2023-02-06T01:50:51.161Z,96.60
2023-02-06T01:53:20.794Z,97.33
2023-02-06T01:55:49.832Z,91.10
2023-02-06T01:58:23.531Z,90.73
2023-02-06T02:00:51.757Z,96.83
2023-02-06T02:03:21.411Z,110.40
2023-02-06T02:05:51.620Z,106.03
2023-02-06T02:08:22.065Z,111.93
2023-02-06T02:10:50.220Z,100.77
2023-02-06T02:13:18.489Z,108.00
2023-02-06T02:15:57.315Z,109.23
2023-02-06T02:18:47.553Z,93.07
2023-02-06T02:21:44.109Z,111.27
2023-02-06T02:24:19.502Z,123.27
2023-02-06T02:27:19.536Z,120.73
2023-02-06T02:30:25.583Z,99.47
2023-02-06T02:33:24.566Z,101.63
2023-02-06T02:35:56.434Z,126.63
2023-02-06T02:38:39.669Z,106.33
2023-02-06T02:41:16.838Z,102.80
2023-02-06T02:43:48.643Z,93.77
2023-02-06T02:46:24.754Z,83.63
2023-02-06T02:48:56.153Z,102.63
2023-02-06T02:51:26.170Z,98.00
2023-02-06T02:53:56.967Z,103.00
2023-02-06T02:56:26.830Z,95.90
2023-02-06T02:58:59.473Z,107.60
2023-02-06T03:01:32.054Z,123.87
2023-02-06T03:04:08.836Z,121.33
2023-02-06T03:06:51.565Z,120.23
2023-02-06T03:09:28.412Z,114.73
2023-02-06T03:12:05.164Z,134.17
2023-02-06T03:14:36.984Z,143.77
2023-02-06T03:17:10.830Z,182.27
2023-02-06T03:19:45.128Z,130.67
2023-02-06T03:22:16.460Z,129.03
2023-02-06T03:24:44.703Z,153.70
2023-02-06T03:27:16.078Z,125.03
2023-02-06T03:29:46.377Z,164.40
2023-02-06T03:32:18.389Z,174.40
2023-02-06T03:34:54.305Z,131.90
2023-02-06T03:37:24.999Z,183.03
2023-02-06T03:39:53.216Z,156.70
2023-02-06T03:42:23.373Z,127.87
2023-02-06T03:44:57.898Z,158.37
2023-02-06T03:47:27.653Z,125.83
2023-02-06T03:49:59.503Z,191.23
2023-02-06T03:52:33.509Z,125.97
2023-02-06T03:55:06.330Z,148.33
2023-02-06T03:57:36.748Z,133.73
2023-02-06T04:00:05.350Z,160.37
2023-02-06T04:02:33.832Z,161.53
2023-02-06T04:05:02.001Z,143.70
2023-02-06T04:07:34.319Z,150.57
2023-02-06T04:10:02.508Z,142.57
2023-02-06T04:12:31.374Z,126.63
2023-02-06T04:14:59.510Z,150.10
2023-02-06T04:17:43.261Z,118.47
2023-02-06T04:20:16.181Z,154.00
2023-02-06T04:22:46.006Z,147.63
2023-02-06T04:25:14.296Z,178.90
2023-02-06T04:27:42.464Z,173.33
2023-02-06T04:30:11.879Z,176.23
2023-02-06T04:32:40.032Z,186.50
2023-02-06T04:35:08.541Z,188.23
2023-02-06T04:37:37.680Z,386.57
2023-02-06T04:40:08.505Z,169.57
2023-02-06T04:42:36.665Z,169.17
2023-02-06T04:45:05.262Z,129.67
2023-02-06T04:47:33.387Z,157.03
2023-02-06T04:50:01.541Z,155.27
2023-02-06T04:52:29.726Z,170.07
2023-02-06T04:54:57.870Z,153.70
2023-02-06T04:57:27.915Z,150.33
2023-02-06T05:00:01.885Z,167.97
2023-02-06T05:02:37.430Z,163.80
2023-02-06T05:05:06.830Z,170.87
2023-02-06T05:07:36.822Z,180.00
2023-02-06T05:10:05.636Z,201.10
2023-02-06T05:12:35.158Z,202.43
2023-02-06T05:15:05.686Z,173.13
2023-02-06T05:17:33.828Z,111.30
2023-02-06T05:20:02.055Z,198.63
2023-02-06T05:22:33.238Z,138.23
2023-02-06T05:25:01.392Z,119.70
2023-02-06T05:27:32.421Z,157.23
2023-02-06T05:30:02.073Z,131.40
2023-02-06T05:32:32.177Z,128.50
2023-02-06T05:35:00.323Z,109.93
2023-02-06T05:37:28.512Z,119.47
2023-02-06T05:39:58.542Z,143.33
2023-02-06T05:42:32.420Z,157.63
2023-02-06T05:45:02.045Z,148.17
2023-02-06T05:47:30.374Z,208.03
2023-02-06T05:49:58.598Z,152.90
2023-02-06T05:52:26.857Z,118.30
2023-02-06T05:54:55.014Z,112.00
2023-02-06T05:57:23.530Z,110.63
2023-02-06T05:59:51.740Z,117.27
2023-02-06T06:02:21.346Z,101.07
2023-02-06T06:04:49.518Z,123.47
2023-02-06T06:07:17.831Z,106.13
2023-02-06T06:09:46.111Z,111.90
2023-02-06T06:12:14.353Z,111.60
2023-02-06T06:14:42.666Z,114.13
2023-02-06T06:17:10.835Z,120.17
2023-02-06T06:19:40.403Z,109.77
2023-02-06T06:22:17.131Z,106.63
2023-02-06T06:24:45.336Z,113.97
2023-02-06T06:27:13.473Z,78.77
2023-02-06T06:29:41.679Z,86.93
2023-02-06T06:32:09.943Z,111.07
2023-02-06T06:34:39.571Z,104.63
2023-02-06T06:37:07.757Z,115.53
2023-02-06T06:39:35.873Z,111.90
2023-02-06T06:42:04.473Z,99.83
2023-02-06T06:44:34.824Z,108.20
2023-02-06T06:47:02.913Z,126.57
2023-02-06T06:49:31.035Z,138.37
2023-02-06T06:52:00.769Z,127.80
2023-02-06T06:54:28.871Z,146.27
2023-02-06T06:56:57.017Z,124.60
2023-02-06T06:59:25.164Z,129.57
2023-02-06T07:01:53.317Z,108.80
2023-02-06T07:04:21.652Z,134.97
2023-02-06T07:06:49.812Z,132.33
2023-02-06T07:09:19.351Z,118.87
2023-02-06T07:11:47.482Z,132.63
2023-02-06T07:14:15.573Z,138.00
2023-02-06T07:16:43.881Z,116.23
2023-02-06T07:19:12.071Z,130.20
2023-02-06T07:21:40.219Z,136.03
2023-02-06T07:24:08.880Z,148.93
2023-02-06T07:26:38.367Z,122.27
2023-02-06T07:29:06.477Z,130.40
2023-02-06T07:31:34.725Z,155.80
2023-02-06T07:34:03.275Z,83.90
2023-02-06T07:36:31.405Z,142.30
2023-02-06T07:38:59.580Z,119.47
2023-02-06T07:41:27.774Z,113.00
2023-02-06T07:43:57.233Z,114.73
2023-02-06T07:46:25.525Z,104.10
2023-02-06T07:48:53.830Z,111.27
2023-02-06T07:51:22.989Z,120.63
2023-02-06T07:53:51.471Z,114.50
2023-02-06T07:56:23.229Z,142.80
2023-02-06T07:58:52.764Z,124.07
2023-02-06T08:01:23.589Z,101.07
2023-02-06T08:03:52.462Z,149.03
2023-02-06T08:06:24.277Z,109.03
2023-02-06T08:08:53.292Z,132.53
2023-02-06T08:11:25.180Z,114.57
2023-02-06T08:13:53.492Z,127.53
2023-02-06T08:16:24.706Z,120.33
2023-02-06T08:18:53.199Z,106.33
2023-02-06T08:21:22.950Z,108.33
2023-02-06T08:23:55.732Z,99.40
2023-02-06T08:26:24.196Z,104.40
2023-02-06T08:28:53.804Z,104.03
2023-02-06T08:31:25.803Z,111.13
2023-02-06T08:33:54.535Z,101.23
2023-02-06T08:36:23.986Z,99.20
2023-02-06T08:38:53.502Z,101.53
2023-02-06T08:41:24.639Z,104.13
2023-02-06T08:43:54.751Z,100.37
2023-02-06T08:46:26.877Z,109.57
2023-02-06T08:48:56.687Z,112.53
2023-02-06T08:51:28.104Z,108.77
2023-02-06T08:54:00.212Z,113.47
2023-02-06T08:56:29.107Z,116.50
2023-02-06T08:58:59.555Z,108.03
2023-02-06T09:01:30.826Z,111.80
2023-02-06T09:04:00.746Z,116.30
2023-02-06T09:06:29.853Z,113.53
2023-02-06T09:08:58.963Z,109.90
2023-02-06T09:11:28.121Z,103.73
2023-02-06T09:13:57.880Z,115.80
2023-02-06T09:16:29.159Z,117.80
2023-02-06T09:19:01.280Z,103.33
2023-02-06T09:21:31.185Z,100.67
2023-02-06T09:24:02.624Z,102.40
2023-02-06T09:26:33.231Z,95.00
2023-02-06T09:29:03.239Z,92.57
2023-02-06T09:31:32.971Z,100.80
2023-02-06T09:34:01.364Z,100.27
2023-02-06T09:36:30.907Z,94.00
2023-02-06T09:38:59.462Z,105.70
2023-02-06T09:41:32.606Z,93.50
2023-02-06T09:44:06.186Z,94.00
2023-02-06T09:46:38.364Z,94.30
2023-02-06T09:49:12.226Z,94.43
2023-02-06T09:51:53.397Z,101.50
2023-02-06T09:54:26.290Z,103.27
2023-02-06T09:56:58.861Z,103.57
2023-02-06T09:59:33.608Z,98.47
2023-02-06T10:02:19.546Z,98.83
2023-02-06T10:04:55.937Z,95.00
2023-02-06T10:07:39.507Z,89.40
2023-02-06T10:10:16.352Z,101.33
2023-02-06T10:12:47.736Z,98.00
2023-02-06T10:15:26.796Z,101.70
2023-02-06T10:18:01.525Z,96.67
2023-02-06T10:20:34.476Z,103.23
2023-02-06T10:23:12.829Z,101.60
2023-02-06T10:25:44.797Z,105.37
2023-02-06T10:28:23.341Z,108.80
2023-02-06T10:31:08.425Z,96.63
2023-02-06T10:33:46.656Z,99.03
2023-02-06T10:36:30.520Z,95.07
2023-02-06T10:39:20.481Z,96.57
2023-02-06T10:41:57.067Z,111.83
2023-02-06T10:44:30.895Z,115.63
2023-02-06T10:47:00.357Z,117.17
2023-02-06T10:49:35.456Z,105.17
2023-02-06T10:52:13.264Z,94.13
2023-02-06T10:54:46.535Z,110.17
2023-02-06T10:57:18.528Z,119.10
2023-02-06T10:59:53.555Z,103.53
2023-02-06T11:02:25.543Z,109.27
2023-02-06T11:05:00.731Z,113.07
2023-02-06T11:07:33.681Z,106.10
2023-02-06T11:10:01.994Z,111.00
2023-02-06T11:12:34.605Z,110.80
2023-02-06T11:15:07.714Z,101.73
2023-02-06T11:17:35.956Z,104.13
2023-02-06T11:20:24.476Z,118.50
2023-02-06T11:22:53.740Z,92.87
2023-02-06T11:25:30.073Z,91.87
2023-02-06T11:28:01.758Z,98.20
2023-02-06T11:30:35.676Z,87.13
2023-02-06T11:33:07.294Z,99.50
2023-02-06T11:35:43.127Z,103.20
2023-02-06T11:38:20.219Z,97.37
2023-02-06T11:40:56.370Z,95.53
2023-02-06T11:43:26.158Z,98.73
2023-02-06T11:46:09.135Z,100.07
2023-02-06T11:48:40.101Z,102.73
2023-02-06T11:51:10.873Z,108.18
2023-02-06T11:53:39.740Z,98.43
2023-02-06T11:56:18.435Z,98.00
2023-02-06T11:58:47.077Z,104.90
2023-02-06T12:01:20.884Z,99.60
2023-02-06T12:03:58.473Z,90.90
2023-02-06T12:06:33.919Z,103.37
2023-02-06T12:09:04.065Z,92.17
2023-02-06T12:11:38.223Z,105.70
2023-02-06T12:14:11.840Z,116.67
2023-02-06T12:16:42.873Z,110.57
2023-02-06T12:19:17.946Z,106.10
2023-02-06T12:21:50.741Z,115.15
2023-02-06T12:24:35.015Z,100.63
2023-02-06T12:27:12.885Z,101.67
2023-02-06T12:29:44.912Z,96.77
2023-02-06T12:32:18.656Z,109.07
2023-02-06T12:34:54.452Z,94.13
2023-02-06T12:37:31.958Z,101.53
2023-02-06T12:40:01.077Z,87.67
2023-02-06T12:42:39.870Z,89.30
2023-02-06T12:45:24.454Z,95.63
2023-02-06T12:47:55.403Z,95.40
2023-02-06T12:50:25.978Z,90.50
2023-02-06T12:53:02.353Z,92.20
2023-02-06T12:55:34.092Z,97.37
2023-02-06T12:58:03.279Z,90.33
2023-02-06T13:00:50.769Z,88.27
2023-02-06T13:03:31.115Z,97.03
2023-02-06T13:06:12.314Z,89.00
2023-02-06T13:08:46.451Z,100.20
2023-02-06T13:11:28.769Z,104.47
2023-02-06T13:14:19.469Z,100.43
2023-02-06T13:16:53.302Z,98.83
2023-02-06T13:19:51.150Z,97.13
2023-02-06T13:22:44.889Z,95.63
2023-02-06T13:25:53.460Z,86.33
2023-02-06T13:28:58.810Z,91.67
2023-02-06T13:31:34.407Z,87.73
2023-02-06T13:34:09.156Z,89.43
2023-02-06T13:36:49.988Z,87.90
2023-02-06T13:39:31.271Z,98.33
2023-02-06T13:42:16.100Z,98.07
2023-02-06T13:44:44.295Z,102.10
2023-02-06T13:47:50.634Z,89.80
2023-02-06T13:50:50.368Z,94.63
2023-02-06T13:53:33.828Z,87.60
2023-02-06T13:56:19.812Z,88.00
2023-02-06T13:58:50.651Z,81.53
2023-02-06T14:01:22.988Z,91.27
2023-02-06T14:03:54.075Z,80.90
2023-02-06T14:06:39.554Z,75.77
2023-02-06T14:09:30.669Z,76.30
2023-02-06T14:12:25.168Z,83.63
2023-02-06T14:15:17.350Z,72.83
2023-02-06T14:18:07.507Z,78.73
2023-02-06T14:20:48.494Z,74.37
2023-02-06T14:23:30.087Z,79.87
2023-02-06T14:26:14.074Z,77.43
2023-02-06T14:28:53.002Z,75.73
2023-02-06T14:31:39.064Z,71.43
2023-02-06T14:34:18.813Z,89.33
2023-02-06T14:37:00.606Z,82.67
2023-02-06T14:39:40.505Z,80.70
2023-02-06T14:42:17.483Z,83.67
2023-02-06T14:44:50.571Z,85.80
2023-02-06T14:47:21.719Z,85.37
2023-02-06T14:49:50.664Z,79.97
2023-02-06T14:52:23.146Z,80.70
2023-02-06T14:54:51.372Z,83.27
2023-02-06T14:57:24.117Z,72.70
2023-02-06T14:59:57.392Z,81.23
2023-02-06T15:02:29.371Z,79.73
2023-02-06T15:04:58.172Z,84.53
2023-02-06T15:07:32.761Z,83.97
2023-02-06T15:10:05.714Z,90.30
2023-02-06T15:12:35.065Z,88.23
2023-02-06T15:15:15.334Z,86.90
2023-02-06T15:17:43.863Z,91.63
2023-02-06T15:20:30.386Z,86.10
2023-02-06T15:23:17.043Z,88.27
2023-02-06T15:26:01.796Z,90.67
2023-02-06T15:28:32.425Z,89.82
2023-02-06T15:31:02.325Z,95.03
2023-02-06T15:33:33.158Z,87.60
2023-02-06T15:36:04.395Z,86.73
2023-02-06T15:38:35.084Z,90.27
2023-02-06T15:41:05.686Z,80.57
2023-02-06T15:43:35.487Z,85.45
2023-02-06T15:46:06.186Z,97.80
2023-02-06T15:48:38.085Z,71.53
2023-02-06T15:51:20.909Z,75.00
2023-02-06T15:53:52.650Z,77.73
2023-02-06T15:56:25.980Z,65.80
2023-02-06T15:59:01.009Z,75.07
2023-02-06T16:01:32.269Z,75.70
2023-02-06T16:04:07.569Z,66.23
2023-02-06T16:06:35.951Z,88.15
2023-02-06T16:09:08.501Z,79.90
2023-02-06T16:11:51.157Z,82.63
2023-02-06T16:14:29.872Z,76.53
2023-02-06T16:17:01.099Z,76.37
2023-02-06T16:19:38.867Z,74.57
2023-02-06T16:22:15.265Z,67.37
2023-02-06T16:24:44.892Z,77.03
2023-02-06T16:27:21.573Z,77.27
2023-02-06T16:29:53.664Z,74.93
2023-02-06T16:32:26.017Z,71.87
2023-02-06T16:34:54.474Z,77.43
2023-02-06T16:37:24.298Z,81.33
2023-02-06T16:39:54.658Z,83.93
2023-02-06T16:42:24.740Z,72.90
2023-02-06T16:44:54.980Z,72.57
2023-02-06T16:47:24.300Z,80.93
2023-02-06T16:49:52.732Z,76.87
2023-02-06T16:52:25.483Z,85.27
2023-02-06T16:54:57.740Z,85.63
2023-02-06T16:57:30.988Z,76.63
2023-02-06T16:59:59.745Z,79.00
2023-02-06T17:02:28.981Z,94.13
2023-02-06T17:04:57.223Z,108.75
2023-02-06T17:07:27.657Z,97.47
2023-02-06T17:09:59.536Z,78.70
2023-02-06T17:12:27.720Z,89.03
2023-02-06T17:14:56.188Z,94.47
2023-02-06T17:17:24.621Z,104.17
2023-02-06T17:19:53.638Z,106.03
2023-02-06T17:22:22.301Z,89.97
2023-02-06T17:24:50.637Z,89.50
2023-02-06T17:27:22.964Z,100.17
2023-02-06T17:29:51.546Z,100.77
2023-02-06T17:32:22.269Z,103.57
2023-02-06T17:34:54.462Z,107.93
2023-02-06T17:37:22.859Z,97.23
2023-02-06T17:39:52.438Z,97.20
2023-02-06T17:42:24.384Z,103.07
2023-02-06T17:44:52.525Z,106.73
2023-02-06T17:47:20.674Z,96.97
2023-02-06T17:49:48.817Z,103.73
2023-02-06T17:52:17.047Z,122.77
2023-02-06T17:54:45.851Z,110.57
2023-02-06T17:57:14.425Z,115.93
2023-02-06T17:59:44.113Z,101.40
2023-02-06T18:02:14.773Z,90.10
2023-02-06T18:04:43.125Z,105.43
2023-02-06T18:07:11.496Z,98.27
2023-02-06T18:09:41.939Z,102.53
2023-02-06T18:12:10.381Z,88.70
2023-02-06T18:14:39.619Z,89.10
2023-02-06T18:17:09.950Z,83.80
2023-02-06T18:19:42.310Z,97.53
2023-02-06T18:22:13.403Z,82.70
2023-02-06T18:24:41.881Z,97.00
2023-02-06T18:27:10.602Z,99.33
2023-02-06T18:29:49.314Z,95.47
2023-02-06T18:32:19.867Z,96.30
2023-02-06T18:34:48.362Z,102.53
2023-02-06T18:37:16.866Z,96.23
2023-02-06T18:39:44.960Z,93.67
2023-02-06T18:42:31.037Z,81.27
2023-02-06T18:44:59.424Z,101.33
2023-02-06T18:47:29.228Z,86.70
2023-02-06T18:49:57.423Z,75.53
2023-02-06T18:52:25.542Z,88.67
2023-02-06T18:54:53.717Z,85.60
2023-02-06T18:57:22.044Z,92.47
2023-02-06T18:59:50.407Z,69.20
2023-02-06T19:02:18.629Z,86.27
2023-02-06T19:04:48.453Z,77.73
2023-02-06T19:07:16.672Z,93.77
2023-02-06T19:09:45.333Z,90.37
2023-02-06T19:12:13.686Z,93.47
2023-02-06T19:14:41.871Z,76.10
2023-02-06T19:17:10.008Z,97.67
2023-02-06T19:19:38.268Z,99.57
2023-02-06T19:22:07.845Z,92.97
2023-02-06T19:24:35.982Z,92.40
2023-02-06T19:27:04.185Z,88.50
2023-02-06T19:29:36.082Z,69.40
2023-02-06T19:32:05.566Z,67.83
2023-02-06T19:34:36.148Z,76.87
2023-02-06T19:37:04.760Z,69.47
2023-02-06T19:39:35.902Z,60.87
2023-02-06T19:42:06.584Z,61.53
2023-02-06T19:44:35.311Z,68.20
2023-02-06T19:47:03.595Z,68.20
2023-02-06T19:49:32.650Z,60.73
2023-02-06T19:52:01.623Z,68.00
2023-02-06T19:54:30.013Z,63.00
2023-02-06T19:57:00.759Z,72.17
2023-02-06T19:59:31.040Z,69.23
2023-02-06T20:02:01.397Z,69.23
2023-02-06T20:04:33.585Z,70.00
2023-02-06T20:07:02.594Z,69.70
2023-02-06T20:09:31.766Z,76.03
2023-02-06T20:12:01.642Z,84.73
2023-02-06T20:14:30.310Z,79.87
2023-02-06T20:16:58.746Z,79.17
2023-02-06T20:19:29.356Z,76.60
2023-02-06T20:22:00.582Z,77.77
2023-02-06T20:24:31.464Z,72.97
2023-02-06T20:27:03.154Z,78.33
2023-02-06T20:29:35.389Z,67.63
2023-02-06T20:32:05.281Z,64.73
2023-02-06T20:34:34.020Z,65.93
2023-02-06T20:37:02.264Z,70.40
2023-02-06T20:39:31.086Z,61.67
2023-02-06T20:42:00.969Z,72.97
2023-02-06T20:44:31.020Z,67.90
2023-02-06T20:46:59.379Z,67.37
2023-02-06T20:49:31.279Z,74.07
2023-02-06T20:51:59.842Z,68.07
2023-02-06T20:54:28.242Z,70.33
2023-02-06T20:56:56.512Z,61.97
2023-02-06T20:59:26.102Z,65.47
2023-02-06T21:01:54.419Z,65.03
2023-02-06T21:04:22.910Z,68.97
2023-02-06T21:06:51.321Z,77.63
2023-02-06T21:09:20.203Z,77.50
2023-02-06T21:11:50.205Z,70.90
2023-02-06T21:14:19.301Z,74.63
2023-02-06T21:16:49.613Z,69.50
2023-02-06T21:19:20.218Z,77.90
2023-02-06T21:21:49.143Z,80.90
2023-02-06T21:24:18.950Z,84.60
2023-02-06T21:26:47.200Z,75.83
2023-02-06T21:29:16.589Z,88.87
2023-02-06T21:31:46.300Z,86.20
2023-02-06T21:34:19.149Z,81.67
2023-02-06T21:36:48.159Z,77.83
2023-02-06T21:39:19.557Z,87.37
2023-02-06T21:41:51.589Z,78.83
2023-02-06T21:44:19.805Z,84.10
2023-02-06T21:46:48.012Z,79.07
2023-02-06T21:49:17.548Z,83.53
2023-02-06T21:51:45.747Z,96.23
2023-02-06T21:54:13.886Z,117.10
2023-02-06T21:56:42.036Z,93.23
2023-02-06T21:59:12.948Z,122.50
2023-02-06T22:01:41.404Z,99.80
2023-02-06T22:04:11.241Z,101.43
2023-02-06T22:06:41.161Z,119.90
2023-02-06T22:09:12.648Z,110.97
2023-02-06T22:11:41.682Z,105.40
2023-02-06T22:14:12.942Z,114.27
2023-02-06T22:16:41.990Z,107.47
2023-02-06T22:19:11.111Z,117.57
2023-02-06T22:21:40.775Z,118.30
2023-02-06T22:24:10.295Z,109.33
2023-02-06T22:26:39.601Z,107.20
2023-02-06T22:29:08.917Z,117.60
2023-02-06T22:31:38.300Z,123.77
2023-02-06T22:34:06.504Z,133.17
2023-02-06T22:36:34.794Z,117.77
2023-02-06T22:39:07.517Z,138.67
2023-02-06T22:41:36.688Z,127.67
2023-02-06T22:44:04.976Z,135.80
2023-02-06T22:46:35.227Z,143.20
2023-02-06T22:49:03.774Z,137.37
2023-02-06T22:51:31.951Z,114.73
2023-02-06T22:54:00.575Z,116.80
2023-02-06T22:56:34.941Z,128.73
2023-02-06T22:59:06.120Z,136.10
2023-02-06T23:01:36.609Z,132.83
2023-02-06T23:04:06.650Z,120.17
2023-02-06T23:06:36.320Z,118.27
2023-02-06T23:09:06.353Z,125.03
2023-02-06T23:11:36.509Z,117.00
2023-02-06T23:14:06.886Z,135.00
2023-02-06T23:16:36.578Z,129.10
2023-02-06T23:19:06.504Z,128.13
2023-02-06T23:21:38.570Z,119.63
2023-02-06T23:24:08.887Z,115.53
2023-02-06T23:26:38.776Z,129.70
2023-02-06T23:29:09.339Z,121.37
2023-02-06T23:31:38.020Z,125.53
2023-02-06T23:34:06.299Z,135.67
2023-02-06T23:36:34.770Z,128.90
2023-02-06T23:39:03.185Z,118.60
2023-02-06T23:41:32.094Z,130.20
2023-02-06T23:44:03.728Z,123.57
2023-02-06T23:46:34.513Z,134.43
2023-02-06T23:49:02.689Z,121.60
2023-02-06T23:51:31.727Z,120.50
2023-02-06T23:54:00.192Z,114.10
2023-02-06T23:56:30.644Z,124.13
2023-02-06T23:59:00.300Z,127.30
